Time;durP1;ratioP1;P1;durP2;ratioP2;P2;SDS_P1;SDS_P2;PMS_P1;PMS_P2;Temp;Humidity;BMP_temperature;BMP_pressure;BME280_temperature;BME280_humidity;BME280_pressure;Samples;Min_cycle;Max_cycle;Signal;HPM_P1;HPM_P2
2021/06/27 00:01:40;;;;;;;0.32;0.30;;;19.00;99.90;;;;;;4429070;32;20565;-75
2021/06/27 00:04:05;;;;;;;0.45;0.45;;;18.90;99.90;;;;;;4429081;32;20065;-76
2021/06/27 00:06:31;;;;;;;0.37;0.30;;;18.90;99.90;;;;;;4428781;32;20128;-76
2021/06/27 00:08:56;;;;;;;0.40;0.40;;;18.70;99.90;;;;;;4428732;32;20112;-76
2021/06/27 00:11:24;;;;;;;0.30;0.30;;;18.70;99.90;;;;;;4427812;32;20061;-75
2021/06/27 00:13:50;;;;;;;1.48;0.40;;;18.70;99.90;;;;;;4429932;32;20070;-77
2021/06/27 00:16:17;;;;;;;0.30;0.30;;;18.70;99.90;;;;;;4428866;32;20126;-76
2021/06/27 00:18:42;;;;;;;0.75;0.30;;;18.70;99.90;;;;;;4429842;32;20490;-77
2021/06/27 00:21:10;;;;;;;4.00;0.70;;;18.50;99.90;;;;;;4430172;32;20093;-76
2021/06/27 00:23:39;;;;;;;0.70;0.45;;;18.40;99.90;;;;;;4428416;32;20495;-76
2021/06/27 00:26:08;;;;;;;0.30;0.30;;;18.40;99.90;;;;;;4428287;32;20424;-76
2021/06/27 00:28:33;;;;;;;1.02;0.60;;;18.40;99.90;;;;;;4428772;32;20128;-76
2021/06/27 00:31:00;;;;;;;0.50;0.50;;;18.40;99.90;;;;;;4428124;32;20440;-76
2021/06/27 00:33:26;;;;;;;0.43;0.43;;;18.60;99.90;;;;;;4414855;32;20523;-76
2021/06/27 00:35:52;;;;;;;0.32;0.32;;;18.70;99.90;;;;;;4413674;32;20065;-75
2021/06/27 00:38:18;;;;;;;6.43;0.75;;;18.70;99.90;;;;;;4412801;32;20117;-77
2021/06/27 00:40:44;;;;;;;0.40;0.40;;;18.50;99.90;;;;;;4413109;32;20495;-76
2021/06/27 00:43:10;;;;;;;0.32;0.32;;;18.40;99.90;;;;;;4413506;32;20066;-77
2021/06/27 00:45:36;;;;;;;0.70;0.40;;;18.40;99.90;;;;;;4412985;32;20097;-76
2021/06/27 00:48:03;;;;;;;0.40;0.40;;;18.40;99.90;;;;;;4413289;32;20073;-76
2021/06/27 00:50:33;;;;;;;0.40;0.40;;;18.40;99.90;;;;;;4413770;32;20078;-77
2021/06/27 00:53:00;;;;;;;0.50;0.47;;;18.40;99.90;;;;;;4416423;32;20074;-77
2021/06/27 00:55:25;;;;;;;0.45;0.45;;;18.40;99.90;;;;;;4415735;32;20080;-76
2021/06/27 00:57:53;;;;;;;2.28;0.73;;;18.30;99.90;;;;;;4415212;32;20066;-76
2021/06/27 01:00:27;;;;;;;0.40;0.40;;;18.40;99.90;;;;;;4415492;32;20071;-76
2021/06/27 01:02:53;;;;;;;0.35;0.35;;;18.40;99.90;;;;;;4416137;32;20050;-76
2021/06/27 01:05:21;;;;;;;2.62;0.40;;;18.50;99.90;;;;;;4416654;32;20074;-77
2021/06/27 01:07:47;;;;;;;0.50;0.50;;;18.40;99.90;;;;;;4415109;32;20062;-76
2021/06/27 01:10:13;;;;;;;0.40;0.40;;;18.30;99.90;;;;;;4415253;32;20061;-76
2021/06/27 01:12:40;;;;;;;0.25;0.25;;;18.40;99.90;;;;;;4415465;32;20066;-75
2021/06/27 01:15:08;;;;;;;0.62;0.50;;;18.40;99.90;;;;;;4415738;32;20479;-76
2021/06/27 01:17:34;;;;;;;0.37;0.37;;;18.40;99.90;;;;;;4415611;32;20393;-77
2021/06/27 01:20:00;;;;;;;1.55;0.80;;;18.30;99.90;;;;;;4416882;32;20094;-76
2021/06/27 01:22:26;;;;;;;0.22;0.22;;;18.40;99.90;;;;;;4415492;32;20086;-77
2021/06/27 01:24:52;;;;;;;0.47;0.47;;;18.40;99.90;;;;;;4415579;32;20077;-75
2021/06/27 01:27:18;;;;;;;0.37;0.37;;;18.30;99.90;;;;;;4415258;32;20127;-76
2021/06/27 01:29:44;;;;;;;0.30;0.30;;;18.30;99.90;;;;;;4415937;32;20082;-76
2021/06/27 01:32:11;;;;;;;0.20;0.20;;;18.20;99.90;;;;;;4415466;32;20066;-76
2021/06/27 01:34:38;;;;;;;0.30;0.30;;;18.20;99.90;;;;;;4415052;32;20140;-76
2021/06/27 01:37:05;;;;;;;0.32;0.32;;;18.20;99.90;;;;;;4414657;32;20073;-76
2021/06/27 01:39:32;;;;;;;0.52;0.52;;;18.20;99.90;;;;;;4415440;32;20079;-76
2021/06/27 01:41:57;;;;;;;0.30;0.30;;;18.20;99.90;;;;;;4415010;32;20121;-76
2021/06/27 01:44:24;;;;;;;1.08;0.73;;;18.00;99.90;;;;;;4415447;32;20077;-77
2021/06/27 01:46:49;;;;;;;0.20;0.20;;;17.90;99.90;;;;;;4416141;32;20057;-76
2021/06/27 01:49:15;;;;;;;0.52;0.40;;;17.90;99.90;;;;;;4416930;32;20082;-77
2021/06/27 01:51:41;;;;;;;0.43;0.43;;;17.90;99.90;;;;;;4415921;32;20061;-76
2021/06/27 01:54:07;;;;;;;1.73;0.47;;;17.90;99.90;;;;;;4415215;32;20135;-76
2021/06/27 01:56:34;;;;;;;0.40;0.40;;;17.80;99.90;;;;;;4414375;32;20073;-76
2021/06/27 01:59:03;;;;;;;1.33;0.65;;;17.80;99.90;;;;;;4414771;32;20074;-75
2021/06/27 02:01:31;;;;;;;1.08;0.60;;;17.70;99.90;;;;;;4415840;32;20149;-76
2021/06/27 02:03:57;;;;;;;0.40;0.40;;;17.70;99.90;;;;;;4415497;32;20095;-76
2021/06/27 02:06:24;;;;;;;0.47;0.47;;;17.70;99.90;;;;;;4415282;32;20428;-76
2021/06/27 02:08:51;;;;;;;0.20;0.20;;;17.60;99.90;;;;;;4414672;32;20118;-76
2021/06/27 02:11:19;;;;;;;0.43;0.43;;;17.50;99.90;;;;;;4414156;32;20061;-76
2021/06/27 02:13:46;;;;;;;0.30;0.30;;;17.50;99.90;;;;;;4415222;32;20124;-77
2021/06/27 02:16:11;;;;;;;0.55;0.55;;;17.50;99.90;;;;;;4414525;32;20527;-76
2021/06/27 02:18:39;;;;;;;0.30;0.30;;;17.60;99.90;;;;;;4415734;32;20069;-76
2021/06/27 02:21:08;;;;;;;0.35;0.30;;;17.70;99.90;;;;;;4415459;32;20030;-76
2021/06/27 02:23:34;;;;;;;0.30;0.30;;;17.70;99.90;;;;;;4414692;32;20062;-76
2021/06/27 02:26:00;;;;;;;0.22;0.22;;;17.60;99.90;;;;;;4413979;32;20424;-76
2021/06/27 02:28:26;;;;;;;0.88;0.73;;;17.60;99.90;;;;;;4414794;32;20074;-76
2021/06/27 02:30:52;;;;;;;0.40;0.40;;;17.50;99.90;;;;;;4414134;32;20104;-76
2021/06/27 02:33:18;;;;;;;0.55;0.52;;;17.40;99.90;;;;;;4414469;32;20082;-76
2021/06/27 02:35:45;;;;;;;0.30;0.30;;;17.30;99.90;;;;;;4414992;32;20415;-76
2021/06/27 02:38:11;;;;;;;0.60;0.35;;;17.30;99.90;;;;;;4414598;32;20087;-77
2021/06/27 02:40:37;;;;;;;0.30;0.30;;;17.30;99.90;;;;;;4414271;32;20065;-76
2021/06/27 02:43:03;;;;;;;0.90;0.50;;;17.20;99.90;;;;;;4415254;32;20076;-76
2021/06/27 02:45:29;;;;;;;0.30;0.30;;;17.20;99.90;;;;;;4414204;32;20065;-76
2021/06/27 02:47:54;;;;;;;0.40;0.40;;;17.10;99.90;;;;;;4414613;32;20090;-76
2021/06/27 02:50:20;;;;;;;0.28;0.28;;;17.10;99.90;;;;;;4415030;32;20090;-76
2021/06/27 02:52:46;;;;;;;0.30;0.30;;;17.10;99.90;;;;;;4414555;32;20069;-76
2021/06/27 02:55:13;;;;;;;0.35;0.35;;;17.20;99.90;;;;;;4413830;32;20101;-76
2021/06/27 02:57:40;;;;;;;0.40;0.40;;;17.20;99.90;;;;;;4413414;32;20091;-76
2021/06/27 03:00:09;;;;;;;0.65;0.50;;;17.10;99.90;;;;;;4414466;32;20062;-76
2021/06/27 03:02:35;;;;;;;0.35;0.35;;;17.30;99.90;;;;;;4415034;32;20073;-76
2021/06/27 03:05:00;;;;;;;0.73;0.73;;;17.30;99.90;;;;;;4414465;32;20070;-76
2021/06/27 03:07:25;;;;;;;0.47;0.47;;;17.30;99.90;;;;;;4413740;32;20062;-76
2021/06/27 03:09:52;;;;;;;0.35;0.35;;;17.20;99.90;;;;;;4414604;32;20086;-76
2021/06/27 03:12:18;;;;;;;0.30;0.30;;;17.20;99.90;;;;;;4413429;32;20137;-75
2021/06/27 03:14:43;;;;;;;3.53;0.65;;;17.10;99.90;;;;;;4414102;32;20116;-76
2021/06/27 03:17:09;;;;;;;6.18;0.47;;;17.00;99.90;;;;;;4414779;32;20065;-77
2021/06/27 03:19:35;;;;;;;0.40;0.40;;;17.00;99.90;;;;;;4414685;32;20112;-76
2021/06/27 03:22:00;;;;;;;0.30;0.30;;;17.00;99.90;;;;;;4413283;32;20073;-76
2021/06/27 03:24:26;;;;;;;0.30;0.30;;;16.80;99.90;;;;;;4414337;32;20065;-76
2021/06/27 03:26:51;;;;;;;0.43;0.43;;;16.90;99.90;;;;;;4413698;32;20081;-76
2021/06/27 03:29:17;;;;;;;3.83;0.62;;;16.90;99.90;;;;;;4413859;32;20082;-76
2021/06/27 03:31:43;;;;;;;0.65;0.50;;;16.90;99.90;;;;;;4417293;32;20073;-76
2021/06/27 03:34:08;;;;;;;0.52;0.52;;;16.90;99.90;;;;;;4429677;32;20522;-77
2021/06/27 03:36:34;;;;;;;0.52;0.50;;;16.90;99.90;;;;;;4428901;32;20085;-76
2021/06/27 03:39:05;;;;;;;0.40;0.40;;;16.80;99.90;;;;;;4429534;32;20073;-76
2021/06/27 03:41:36;;;;;;;0.30;0.30;;;16.70;99.90;;;;;;4428255;32;20073;-77
2021/06/27 03:44:01;;;;;;;0.52;0.52;;;16.80;99.90;;;;;;4429058;32;20510;-76
2021/06/27 03:46:27;;;;;;;0.43;0.43;;;16.90;99.90;;;;;;4428931;32;20090;-76
2021/06/27 03:48:53;;;;;;;0.45;0.45;;;16.90;99.90;;;;;;4429657;32;20070;-76
2021/06/27 03:51:18;;;;;;;1.08;0.45;;;17.10;99.90;;;;;;4429460;32;20581;-76
2021/06/27 03:53:44;;;;;;;0.35;0.35;;;17.00;99.90;;;;;;4429116;32;20546;-76
2021/06/27 03:56:10;;;;;;;0.30;0.30;;;16.90;99.90;;;;;;4428228;32;20437;-76
2021/06/27 03:58:36;;;;;;;0.40;0.40;;;16.90;99.90;;;;;;4429443;32;20070;-76
2021/06/27 04:01:01;;;;;;;0.30;0.30;;;17.00;99.90;;;;;;4428871;32;20441;-76
2021/06/27 04:03:27;;;;;;;2.55;0.65;;;17.10;99.90;;;;;;4429049;32;20081;-76
2021/06/27 04:05:53;;;;;;;0.40;0.40;;;17.10;99.90;;;;;;4429179;32;20089;-76
2021/06/27 04:08:18;;;;;;;1.23;0.60;;;17.20;99.90;;;;;;4428109;32;20121;-76
2021/06/27 04:10:44;;;;;;;0.62;0.62;;;17.30;99.90;;;;;;4428357;32;20066;-76
2021/06/27 04:13:09;;;;;;;0.32;0.32;;;17.40;99.90;;;;;;4428976;32;20073;-77
2021/06/27 04:15:36;;;;;;;0.40;0.40;;;17.40;99.90;;;;;;4429301;32;20073;-76
2021/06/27 04:18:02;;;;;;;0.60;0.60;;;17.50;99.90;;;;;;4428906;32;20062;-76
2021/06/27 04:20:27;;;;;;;0.50;0.50;;;17.60;99.90;;;;;;4429326;32;20160;-76
2021/06/27 04:22:53;;;;;;;0.25;0.25;;;17.60;99.90;;;;;;4428602;32;20077;-75
2021/06/27 04:25:18;;;;;;;0.40;0.40;;;17.70;99.90;;;;;;4428943;32;20474;-76
2021/06/27 04:27:44;;;;;;;0.30;0.30;;;17.80;99.90;;;;;;4430983;32;20082;-76
2021/06/27 04:30:10;;;;;;;0.30;0.30;;;17.80;99.90;;;;;;4431061;32;20089;-76
2021/06/27 04:32:36;;;;;;;0.50;0.37;;;17.90;99.90;;;;;;4423281;32;20073;-76
2021/06/27 04:35:02;;;;;;;0.50;0.50;;;18.00;99.90;;;;;;4417226;32;20120;-77
2021/06/27 04:37:28;;;;;;;0.80;0.37;;;18.00;99.90;;;;;;4415347;32;20057;-76
2021/06/27 04:39:53;;;;;;;0.32;0.32;;;18.00;99.90;;;;;;4416653;32;20066;-76
2021/06/27 04:42:19;;;;;;;0.43;0.43;;;18.00;99.90;;;;;;4401473;32;20132;-77
2021/06/27 04:44:44;;;;;;;0.32;0.32;;;18.10;99.90;;;;;;4416011;32;20073;-76
2021/06/27 04:47:10;;;;;;;0.40;0.40;;;18.10;99.90;;;;;;4415482;32;20082;-76
2021/06/27 04:49:39;;;;;;;0.55;0.55;;;18.20;99.90;;;;;;4417287;32;20065;-76
2021/06/27 04:52:07;;;;;;;0.32;0.32;;;18.20;99.90;;;;;;4415749;32;20511;-76
2021/06/27 04:54:32;;;;;;;0.43;0.43;;;18.30;99.90;;;;;;4416188;32;20091;-76
2021/06/27 04:56:58;;;;;;;0.50;0.50;;;18.40;99.90;;;;;;4414671;32;20313;-76
2021/06/27 04:59:23;;;;;;;0.40;0.40;;;18.40;99.90;;;;;;4415586;32;20066;-76
2021/06/27 05:01:49;;;;;;;0.30;0.30;;;18.50;99.90;;;;;;4417398;32;20073;-76
2021/06/27 05:04:14;;;;;;;0.30;0.30;;;18.60;99.90;;;;;;4416081;32;20124;-76
2021/06/27 05:06:40;;;;;;;0.40;0.40;;;18.70;99.90;;;;;;4415535;32;20061;-76
2021/06/27 05:09:05;;;;;;;0.37;0.37;;;18.90;99.90;;;;;;4416344;32;20130;-76
2021/06/27 05:11:31;;;;;;;0.20;0.20;;;18.90;99.90;;;;;;4415335;32;20089;-76
2021/06/27 05:13:56;;;;;;;0.20;0.20;;;18.90;99.90;;;;;;4416234;32;20065;-77
2021/06/27 05:16:22;;;;;;;0.20;0.20;;;19.00;99.90;;;;;;4416763;32;20073;-76
2021/06/27 05:18:47;;;;;;;0.30;0.30;;;19.10;99.90;;;;;;4416007;32;20066;-76
2021/06/27 05:21:13;;;;;;;0.30;0.30;;;19.20;99.90;;;;;;4415881;32;20413;-76
2021/06/27 05:23:38;;;;;;;0.40;0.40;;;19.20;99.90;;;;;;4415106;32;20069;-76
2021/06/27 05:26:04;;;;;;;2.42;1.25;;;19.40;99.90;;;;;;4415053;32;20073;-76
2021/06/27 05:28:30;;;;;;;0.30;0.30;;;19.60;99.90;;;;;;4416735;32;20074;-76
2021/06/27 05:30:56;;;;;;;3.67;1.10;;;19.70;99.90;;;;;;4414613;32;20069;-76
2021/06/27 05:33:21;;;;;;;0.77;0.40;;;19.90;99.90;;;;;;4429980;32;20404;-77
2021/06/27 05:35:46;;;;;;;2.40;0.62;;;19.90;99.90;;;;;;4430938;32;20633;-76
2021/06/27 05:38:12;;;;;;;0.68;0.50;;;20.00;99.90;;;;;;4429652;32;20073;-76
2021/06/27 05:40:39;;;;;;;0.20;0.20;;;20.00;99.90;;;;;;4430395;32;20152;-76
2021/06/27 05:43:04;;;;;;;0.20;0.20;;;20.00;99.90;;;;;;4430784;32;20077;-76
2021/06/27 05:45:30;;;;;;;0.30;0.30;;;20.00;99.90;;;;;;4429967;32;20440;-76
2021/06/27 05:47:56;;;;;;;0.25;0.25;;;20.00;99.90;;;;;;4430557;32;20081;-76
2021/06/27 05:50:21;;;;;;;0.20;0.20;;;20.00;99.90;;;;;;4430504;32;20073;-76
2021/06/27 05:52:47;;;;;;;0.43;0.30;;;20.10;99.90;;;;;;4430243;32;20430;-76
2021/06/27 05:55:13;;;;;;;0.30;0.30;;;20.20;99.90;;;;;;4430310;32;20065;-76
2021/06/27 05:57:39;;;;;;;0.20;0.20;;;20.30;99.90;;;;;;4430032;32;20065;-77
2021/06/27 06:00:05;;;;;;;0.20;0.20;;;20.40;99.90;;;;;;4429795;32;20657;-76
2021/06/27 06:02:31;;;;;;;0.30;0.30;;;20.40;99.90;;;;;;4430457;32;20073;-76
2021/06/27 06:04:56;;;;;;;0.40;0.40;;;20.40;99.90;;;;;;4430174;32;20530;-76
2021/06/27 06:07:22;;;;;;;0.75;0.50;;;20.50;99.90;;;;;;4429701;32;20069;-77
2021/06/27 06:09:47;;;;;;;0.20;0.20;;;20.60;99.90;;;;;;4430434;32;20065;-76
2021/06/27 06:12:13;;;;;;;0.20;0.20;;;20.70;99.90;;;;;;4429702;32;20081;-77
2021/06/27 06:14:38;;;;;;;0.40;0.40;;;20.80;99.90;;;;;;4430683;32;20119;-76
2021/06/27 06:17:04;;;;;;;0.25;0.25;;;20.80;99.90;;;;;;4431427;32;20136;-76
2021/06/27 06:19:29;;;;;;;1.60;0.60;;;20.80;99.90;;;;;;4430327;32;20072;-76
2021/06/27 06:21:55;;;;;;;0.20;0.20;;;20.80;99.90;;;;;;4429791;32;20065;-76
2021/06/27 06:24:21;;;;;;;0.20;0.20;;;20.70;99.90;;;;;;4430261;32;20073;-76
2021/06/27 06:26:47;;;;;;;0.40;0.40;;;20.80;99.90;;;;;;4429598;32;20560;-76
2021/06/27 06:29:12;;;;;;;0.37;0.37;;;20.90;99.90;;;;;;4429816;32;20088;-76
2021/06/27 06:31:38;;;;;;;0.45;0.45;;;21.00;99.90;;;;;;4427865;32;20061;-76
2021/06/27 06:34:04;;;;;;;0.40;0.40;;;21.00;99.90;;;;;;4414728;32;20070;-76
2021/06/27 06:36:29;;;;;;;0.30;0.30;;;21.10;99.90;;;;;;4414100;32;20078;-76
2021/06/27 06:38:55;;;;;;;0.30;0.30;;;21.10;99.90;;;;;;4414156;32;20069;-76
2021/06/27 06:41:21;;;;;;;0.20;0.20;;;21.10;99.90;;;;;;4413800;32;20078;-76
2021/06/27 06:43:47;;;;;;;0.20;0.20;;;21.20;99.90;;;;;;4414396;32;20090;-76
2021/06/27 06:46:12;;;;;;;0.20;0.20;;;21.30;99.90;;;;;;4414533;32;20057;-76
2021/06/27 06:48:38;;;;;;;0.25;0.25;;;21.40;99.90;;;;;;4414474;32;20081;-76
2021/06/27 06:51:04;;;;;;;0.30;0.30;;;21.50;99.90;;;;;;4414307;32;20515;-76
2021/06/27 06:53:30;;;;;;;0.40;0.40;;;21.50;99.60;;;;;;4413844;32;20105;-76
2021/06/27 06:55:57;;;;;;;0.30;0.30;;;21.50;99.80;;;;;;4414787;32;20120;-76
2021/06/27 06:58:24;;;;;;;0.20;0.20;;;21.40;99.60;;;;;;4414164;32;20065;-76
2021/06/27 07:00:50;;;;;;;0.22;0.22;;;21.40;99.90;;;;;;4413629;32;20066;-76
2021/06/27 07:03:15;;;;;;;0.30;0.30;;;21.50;99.30;;;;;;4414776;32;20074;-76
2021/06/27 07:05:40;;;;;;;0.30;0.20;;;21.70;99.40;;;;;;4414070;32;20424;-76
2021/06/27 07:08:06;;;;;;;0.30;0.30;;;21.80;99.10;;;;;;4413733;32;20082;-76
2021/06/27 07:10:32;;;;;;;0.30;0.30;;;21.80;98.70;;;;;;4413578;32;20074;-76
2021/06/27 07:12:57;;;;;;;0.35;0.35;;;21.90;98.30;;;;;;4414622;32;20124;-76
2021/06/27 07:15:23;;;;;;;0.20;0.20;;;22.00;98.30;;;;;;4414700;32;20066;-76
2021/06/27 07:17:48;;;;;;;0.30;0.30;;;22.00;98.30;;;;;;4414056;32;20461;-76
2021/06/27 07:20:14;;;;;;;0.90;0.57;;;22.10;98.00;;;;;;4414498;32;20112;-76
2021/06/27 07:22:40;;;;;;;0.40;0.40;;;22.20;97.80;;;;;;4414596;32;20539;-76
2021/06/27 07:25:07;;;;;;;0.28;0.28;;;22.20;98.00;;;;;;4415297;32;20112;-76
2021/06/27 07:27:33;;;;;;;0.20;0.20;;;22.20;97.60;;;;;;4413487;32;20065;-76
2021/06/27 07:29:59;;;;;;;0.60;0.30;;;22.40;97.70;;;;;;4413356;32;20069;-76
2021/06/27 07:32:24;;;;;;;0.62;0.35;;;22.50;98.00;;;;;;4421987;32;20522;-76
2021/06/27 07:34:50;;;;;;;0.30;0.30;;;22.60;97.50;;;;;;4430240;32;20072;-76
2021/06/27 07:37:15;;;;;;;0.20;0.20;;;22.60;97.20;;;;;;4428200;32;20180;-76
2021/06/27 07:39:41;;;;;;;0.20;0.20;;;22.70;97.10;;;;;;4429542;32;20127;-76
2021/06/27 07:42:07;;;;;;;0.55;0.43;;;22.90;96.50;;;;;;4428416;32;20082;-76
2021/06/27 07:44:32;;;;;;;0.52;0.45;;;22.90;96.40;;;;;;4428995;32;20606;-76
2021/06/27 07:46:58;;;;;;;0.20;0.20;;;22.90;96.30;;;;;;4430054;32;20131;-76
2021/06/27 07:49:23;;;;;;;0.30;0.30;;;23.00;96.30;;;;;;4429291;32;20416;-76
2021/06/27 07:51:49;;;;;;;0.40;0.40;;;23.10;96.40;;;;;;4428627;32;20065;-76
2021/06/27 07:54:14;;;;;;;0.30;0.30;;;23.30;96.30;;;;;;4430048;32;20070;-76
2021/06/27 07:56:40;;;;;;;0.22;0.22;;;23.40;95.70;;;;;;4425421;32;20530;-76
2021/06/27 07:59:08;;;;;;;0.30;0.30;;;23.60;95.30;;;;;;4423675;32;20089;-76
2021/06/27 08:01:34;;;;;;;0.40;0.40;;;23.80;95.20;;;;;;4431952;32;20226;-76
2021/06/27 08:04:00;;;;;;;0.30;0.30;;;23.80;94.40;;;;;;4432070;32;20432;-76
2021/06/27 08:06:25;;;;;;;0.22;0.22;;;23.60;94.20;;;;;;4431854;32;20388;-75
2021/06/27 08:08:51;;;;;;;1.05;0.75;;;23.60;94.40;;;;;;4429979;32;20082;-76
2021/06/27 08:11:16;;;;;;;0.98;0.30;;;23.70;94.40;;;;;;4430978;32;20073;-76
2021/06/27 08:13:42;;;;;;;0.77;0.62;;;23.80;94.40;;;;;;4431444;32;20070;-76
2021/06/27 08:16:07;;;;;;;0.30;0.30;;;24.00;94.10;;;;;;4417471;32;20093;-76
2021/06/27 08:18:33;;;;;;;0.30;0.30;;;24.10;93.90;;;;;;4432342;32;20478;-77
2021/06/27 08:20:58;;;;;;;0.40;0.40;;;24.10;93.70;;;;;;4431588;32;20519;-77
2021/06/27 08:23:24;;;;;;;0.30;0.30;;;24.20;93.90;;;;;;4430932;32;20124;-76
2021/06/27 08:25:49;;;;;;;0.30;0.30;;;24.50;94.00;;;;;;4431796;32;20066;-77
2021/06/27 08:28:15;;;;;;;1.05;0.28;;;24.50;93.80;;;;;;4432015;32;20412;-76
2021/06/27 08:30:41;;;;;;;0.28;0.28;;;24.60;93.40;;;;;;4430848;32;20069;-76
2021/06/27 08:33:06;;;;;;;0.43;0.43;;;24.60;93.50;;;;;;4420041;32;20463;-76
2021/06/27 08:35:33;;;;;;;0.30;0.30;;;24.70;93.10;;;;;;4415922;32;20079;-76
2021/06/27 08:37:59;;;;;;;0.10;0.10;;;24.80;92.70;;;;;;4415269;32;20468;-76
2021/06/27 08:40:24;;;;;;;0.20;0.20;;;24.60;93.00;;;;;;4415142;32;20086;-76
2021/06/27 08:42:51;;;;;;;0.30;0.30;;;24.70;92.90;;;;;;4417052;32;20518;-76
2021/06/27 08:45:18;;;;;;;10.85;0.30;;;24.70;92.70;;;;;;4415794;32;20073;-76
2021/06/27 08:47:46;;;;;;;0.43;0.43;;;24.70;92.50;;;;;;4415310;32;20087;-76
2021/06/27 08:50:15;;;;;;;0.50;0.50;;;24.90;92.40;;;;;;4416275;32;20086;-76
2021/06/27 08:52:43;;;;;;;0.35;0.32;;;24.80;92.20;;;;;;4415448;32;20518;-76
2021/06/27 08:55:09;;;;;;;0.47;0.32;;;24.90;92.40;;;;;;4415751;32;20140;-75
2021/06/27 08:57:35;;;;;;;0.20;0.20;;;25.00;92.40;;;;;;4415119;32;20133;-76
2021/06/27 09:00:01;;;;;;;0.30;0.30;;;24.90;91.80;;;;;;4414864;32;20061;-76
2021/06/27 09:02:29;;;;;;;0.30;0.30;;;25.10;92.30;;;;;;4416110;32;20085;-76
2021/06/27 09:04:54;;;;;;;0.20;0.20;;;25.20;92.10;;;;;;4417189;32;20061;-76
2021/06/27 09:07:38;;;;;;;0.20;0.20;;;25.40;91.50;;;;;;4415511;32;20081;-76
2021/06/27 09:10:09;;;;;;;0.20;0.20;;;25.40;91.50;;;;;;4415512;32;20073;-76
2021/06/27 09:12:54;;;;;;;0.32;0.32;;;25.50;91.50;;;;;;4416254;32;20061;-76
2021/06/27 09:15:42;;;;;;;0.30;0.28;;;25.40;91.10;;;;;;4415378;32;20090;-76
2021/06/27 09:18:21;;;;;;;0.20;0.20;;;25.40;91.20;;;;;;4404265;32;20086;-76
2021/06/27 09:20:49;;;;;;;0.20;0.20;;;25.50;92.10;;;;;;4415366;32;20116;-76
2021/06/27 09:23:16;;;;;;;0.20;0.20;;;25.70;91.40;;;;;;4414680;32;20074;-76
2021/06/27 09:25:44;;;;;;;0.20;0.20;;;25.90;91.00;;;;;;4415315;32;20081;-76
2021/06/27 09:28:13;;;;;;;0.20;0.20;;;25.90;90.30;;;;;;4416531;32;20082;-76
2021/06/27 09:30:46;;;;;;;0.30;0.30;;;25.90;90.10;;;;;;4415251;32;20094;-76
2021/06/27 09:33:14;;;;;;;0.15;0.15;;;25.80;90.50;;;;;;4427725;32;20074;-76
2021/06/27 09:35:51;;;;;;;0.20;0.20;;;25.80;90.20;;;;;;4431544;32;20065;-76
2021/06/27 09:38:20;;;;;;;0.20;0.20;;;25.90;90.40;;;;;;4430452;32;20065;-76
2021/06/27 09:40:46;;;;;;;0.30;0.30;;;25.90;90.70;;;;;;4428748;32;74314;-76
2021/06/27 09:43:11;;;;;;;0.30;0.30;;;26.00;90.00;;;;;;4430457;32;20061;-76
2021/06/27 09:45:50;;;;;;;0.30;0.30;;;25.70;90.00;;;;;;4429807;32;20085;-76
2021/06/27 09:48:16;;;;;;;0.20;0.20;;;25.30;90.50;;;;;;4430287;32;20089;-76
2021/06/27 09:50:42;;;;;;;0.20;0.20;;;25.40;90.00;;;;;;4430883;32;20066;-76
2021/06/27 09:53:32;;;;;;;0.20;0.20;;;25.60;89.30;;;;;;4430085;32;20090;-76
2021/06/27 09:55:59;;;;;;;0.30;0.30;;;25.80;89.50;;;;;;4418667;32;20109;-76
2021/06/27 09:58:24;;;;;;;0.32;0.32;;;25.90;90.00;;;;;;4430199;32;20510;-77
2021/06/27 10:00:50;;;;;;;0.20;0.20;;;26.10;88.90;;;;;;4429588;32;20065;-76
2021/06/27 10:03:15;;;;;;;0.10;0.10;;;26.00;86.00;;;;;;4430671;32;20077;-76
2021/06/27 10:05:41;;;;;;;0.75;0.57;;;26.10;86.50;;;;;;4430876;32;20078;-77
2021/06/27 10:08:06;;;;;;;0.20;0.20;;;26.40;86.20;;;;;;4429399;32;20077;-76
2021/06/27 10:10:32;;;;;;;0.20;0.20;;;26.50;86.20;;;;;;4429746;32;20079;-76
2021/06/27 10:12:59;;;;;;;0.40;0.40;;;26.60;87.10;;;;;;4430340;32;20607;-76
2021/06/27 10:15:24;;;;;;;0.25;0.25;;;26.70;84.70;;;;;;4430212;32;20082;-76
2021/06/27 10:17:51;;;;;;;0.20;0.20;;;26.60;84.10;;;;;;4430375;32;20077;-77
2021/06/27 10:20:17;;;;;;;0.30;0.30;;;26.80;83.60;;;;;;4430117;32;20070;-77
2021/06/27 10:22:43;;;;;;;0.20;0.20;;;26.70;82.50;;;;;;4430133;32;20069;-76
2021/06/27 10:25:11;;;;;;;0.25;0.25;;;26.80;83.20;;;;;;4428903;32;20257;-76
2021/06/27 10:27:38;;;;;;;0.22;0.22;;;26.90;83.00;;;;;;4429792;32;20073;-76
2021/06/27 10:30:07;;;;;;;0.20;0.20;;;26.90;82.60;;;;;;4429331;32;20458;-77
2021/06/27 10:32:38;;;;;;;0.30;0.30;;;27.10;82.10;;;;;;4421630;32;20118;-77
2021/06/27 10:35:07;;;;;;;2.67;0.85;;;27.10;81.40;;;;;;4414412;32;20128;-76
2021/06/27 10:37:35;;;;;;;0.20;0.20;;;27.30;81.50;;;;;;4414188;32;20164;-76
2021/06/27 10:40:04;;;;;;;0.20;0.20;;;27.60;81.20;;;;;;4414555;32;20642;-76
2021/06/27 10:42:51;;;;;;;0.30;0.30;;;27.90;79.50;;;;;;4399974;32;20428;-76
2021/06/27 10:45:18;;;;;;;0.10;0.10;;;28.10;75.80;;;;;;4402455;32;20506;-76
2021/06/27 10:47:44;;;;;;;2.28;0.22;;;27.80;75.20;;;;;;4414632;32;20065;-76
2021/06/27 10:50:11;;;;;;;0.08;0.08;;;27.80;76.20;;;;;;4414583;32;20057;-76
2021/06/27 10:52:58;;;;;;;0.85;0.45;;;28.10;76.40;;;;;;4414046;32;20070;-76
2021/06/27 10:55:39;;;;;;;0.20;0.10;;;28.60;75.50;;;;;;4402756;32;20078;-76
2021/06/27 10:58:08;;;;;;;0.10;0.10;;;28.50;75.00;;;;;;4414400;32;20110;-76
2021/06/27 11:00:56;;;;;;;1.75;0.65;;;29.00;73.80;;;;;;4415153;32;20173;-76
2021/06/27 11:03:24;;;;;;;0.10;0.10;;;29.20;74.60;;;;;;4403185;32;20528;-76
2021/06/27 11:05:55;;;;;;;0.68;0.52;;;29.40;73.30;;;;;;4415215;32;20108;-76
2021/06/27 11:08:36;;;;;;;0.17;0.17;;;29.20;72.70;;;;;;4413627;32;20089;-76
2021/06/27 11:11:06;;;;;;;0.10;0.10;;;28.80;73.30;;;;;;4413349;32;20054;-76
2021/06/27 11:13:32;;;;;;;0.10;0.10;;;28.70;73.60;;;;;;4414060;32;20120;-76
2021/06/27 11:16:03;;;;;;;0.28;0.28;;;28.80;73.80;;;;;;4414001;32;20185;-76
2021/06/27 11:18:36;;;;;;;0.20;0.20;;;29.30;73.30;;;;;;4414434;32;20377;-76
2021/06/27 11:21:05;;;;;;;0.25;0.25;;;29.70;71.90;;;;;;4415259;32;20074;-76
2021/06/27 11:23:52;;;;;;;0.20;0.20;;;30.20;72.00;;;;;;4413852;32;20069;-76
2021/06/27 11:26:39;;;;;;;0.10;0.10;;;30.60;69.60;;;;;;4402076;32;20056;-76
2021/06/27 11:29:26;;;;;;;0.20;0.20;;;30.40;69.90;;;;;;4402417;32;20079;-76
2021/06/27 11:31:54;;;;;;;11.70;0.60;;;30.30;69.30;;;;;;4407393;32;20518;-76
2021/06/27 11:34:24;;;;;;;0.20;0.20;;;30.60;69.20;;;;;;4429072;32;20488;-76
2021/06/27 11:36:51;;;;;;;0.10;0.10;;;29.80;69.40;;;;;;4428505;32;20073;-75
2021/06/27 11:39:45;;;;;;;0.20;0.10;;;29.40;70.70;;;;;;4430895;32;20119;-76
2021/06/27 11:42:29;;;;;;;0.10;0.10;;;29.30;70.60;;;;;;4417808;32;20062;-76
2021/06/27 11:45:16;;;;;;;0.10;0.10;;;30.10;68.20;;;;;;4429733;32;20082;-76
2021/06/27 11:47:55;;;;;;;0.00;0.00;;;30.50;66.70;;;;;;4417243;32;20128;-76
2021/06/27 11:50:30;;;;;;;0.20;0.20;;;30.80;65.90;;;;;;4429277;32;20460;-76
2021/06/27 11:53:05;;;;;;;0.00;0.00;;;30.60;65.50;;;;;;4428854;32;20120;-76
2021/06/27 11:55:34;;;;;;;0.10;0.10;;;30.50;64.10;;;;;;4428798;32;20065;-77
2021/06/27 11:58:00;;;;;;;0.00;0.00;;;30.90;64.00;;;;;;4429054;32;20069;-76
2021/06/27 12:00:46;;;;;;;0.35;0.35;;;31.10;65.40;;;;;;4428591;32;20073;-76
2021/06/27 12:03:14;;;;;;;0.00;0.00;;;31.10;64.50;;;;;;4429301;32;20101;-76
2021/06/27 12:05:40;;;;;;;0.20;0.20;;;31.50;65.00;;;;;;4429202;32;20771;-76
2021/06/27 12:08:10;;;;;;;14.25;0.30;;;32.00;62.70;;;;;;4428058;32;20156;-77
2021/06/27 12:10:36;;;;;;;;;;;32.40;62.00;;;;;;4423053;32;20073;-77
2021/06/27 12:13:05;;;;;;;0.00;0.00;;;32.40;61.20;;;;;;4413933;32;19937;-77
2021/06/27 12:15:35;;;;;;;0.00;0.00;;;31.90;59.90;;;;;;4413619;32;20054;-77
2021/06/27 12:18:20;;;;;;;0.10;0.10;;;30.80;61.70;;;;;;4413391;32;20433;-76
2021/06/27 12:20:50;;;;;;;0.28;0.20;;;30.60;63.70;;;;;;4414282;32;20503;-76
2021/06/27 12:23:34;;;;;;;0.20;0.13;;;31.10;62.90;;;;;;4414109;32;20535;-76
2021/06/27 12:26:04;;;;;;;0.00;0.00;;;31.20;61.50;;;;;;4412490;32;20062;-76
2021/06/27 12:28:39;;;;;;;0.25;0.15;;;30.70;62.20;;;;;;4413497;32;20098;-77
2021/06/27 12:31:15;;;;;;;0.00;0.00;;;30.30;64.10;;;;;;4413067;32;20397;-76
2021/06/27 12:33:42;;;;;;;0.22;0.20;;;30.60;63.10;;;;;;4413824;32;20082;-76
2021/06/27 12:36:11;;;;;;;0.08;0.08;;;31.00;60.90;;;;;;4414021;32;20128;-76
2021/06/27 12:38:38;;;;;;;2.00;0.60;;;31.50;61.90;;;;;;4412644;32;20476;-76
2021/06/27 12:41:06;;;;;;;0.00;0.00;;;31.70;60.70;;;;;;4412711;32;20062;-76
2021/06/27 12:43:35;;;;;;;0.03;0.03;;;31.60;59.40;;;;;;4413069;32;20128;-76
2021/06/27 12:46:22;;;;;;;0.65;0.30;;;31.70;58.80;;;;;;4412968;32;20081;-76
2021/06/27 12:49:04;;;;;;;0.20;0.20;;;31.50;58.60;;;;;;4404647;32;20061;-76
2021/06/27 12:51:41;;;;;;;0.70;0.22;;;30.90;59.40;;;;;;4415637;32;20417;-76